Missoula International Airport
KMSO : now visible

Airfield :











YOU CAN JOIN US ON...

 
LOGIN :

Register | Disclaimer

   EN    FR    IT 

 









Legend :    VFR   Marginal VFR   IFR   Intensive IFR   Very Intensive IFR
Visi :
Ceiling :
>= 8 km
>= 3000ft
5 to 8 km
1000 to 3000 ft
1500m to 5 km
500 to 1000 ft
800 to 1500m
200 to 500 ft
< 800m
< 200 ft
Symbols :   Thunderstorms  Fog  Heavy snow  Heavy precipitations  Wind > 20 kt






- Airport Elevation : 3206 ft
- IATA code : MSO


KMSO - Missoula International

CURRENT METAR :
  • 081053Z AUTO 00000KT 10SM BKN070 00/M04 A3010 RMK AO2 SLP209 T00001039

EXPIRED METARs :
  • 080953Z AUTO 00000KT 10SM OVC075 01/M04 A3011 RMK AO2 SLP214 T00111039
  • 080853Z AUTO 32003KT 10SM SCT075 01/M04 A3012 RMK AO2 SLP218 T00061039 58007

TAF KMSO
Valid from the 08 at 12:00 until the 09 at 12:00 UTC


081120Z 0812/0912 00000KT P6SM OVC070
FM081500 35004KT P6SM VCSH BKN045 OVC060
FM082000 03006KT 5SM -SHRASN BKN025 OVC040
FM082300 35010KT 3SM -SHRASN BKN025 OVC040
FM090600 08008KT P6SM OVC040
KZLC FIR / North America



MET'MAP, your aeronautical weather chart ! - Copyright ORBIFLY December 2007 - Disclaimer

ORBIFLY MET'MAP TEAM :

Programming & Development : Alexandra Zaïnal
Concept & original design : Baudouin d'Aumeries
Assistance for programming : Marc-Olivier Méhu
Technical & hardware support : Manuel Goepfert

Contact : metmap@orbifly.com




SOURCES & CREDITS :

   NOAA       Earth
Advisory